Time;durP1;ratioP1;P1;durP2;ratioP2;P2;SDS_P1;SDS_P2;PMS_P1;PMS_P2;Temp;Humidity;BMP_temperature;BMP_pressure;BME280_temperature;BME280_humidity;BME280_pressure;Samples;Min_cycle;Max_cycle;Signal;HPM_P1;HPM_P2
2022/04/21 00:01:01;;;;;;;8.03;6.35;;;;;;;4.26;82.74;100678.95;1758036;81;20885;-81
2022/04/21 00:03:28;;;;;;;10.23;7.17;;;;;;;4.25;82.77;100688.11;1758576;80;20935;-79
2022/04/21 00:05:56;;;;;;;7.67;6.87;;;;;;;4.24;82.82;100688.54;1758057;80;21006;-80
2022/04/21 00:08:22;;;;;;;11.25;7.58;;;;;;;4.22;82.85;100695.52;1759216;80;21088;-79
2022/04/21 00:10:50;;;;;;;8.03;7.22;;;;;;;4.20;83.02;100687.39;1757933;81;21524;-79
2022/04/21 00:13:18;;;;;;;7.90;7.10;;;;;;;4.19;83.13;100709.07;1758084;81;20971;-79
2022/04/21 00:15:46;;;;;;;8.70;7.03;;;;;;;4.15;83.28;100703.95;1757978;81;20868;-80
2022/04/21 00:18:14;;;;;;;9.03;7.15;;;;;;;4.12;83.48;100702.77;1757969;81;20905;-80
2022/04/21 00:20:41;;;;;;;8.45;7.55;;;;;;;4.12;83.66;100709.26;1781468;80;21100;-80
2022/04/21 00:23:26;;;;;;;8.93;6.30;;;;;;;4.11;83.82;100706.70;1789852;79;20860;-79
2022/04/21 00:25:58;;;;;;;8.25;7.00;;;;;;;4.11;84.01;100702.81;1789829;80;20899;-77
2022/04/21 00:28:26;;;;;;;8.43;6.97;;;;;;;4.11;84.03;100702.39;1789814;80;20883;-79
2022/04/21 00:30:53;;;;;;;8.58;7.47;;;;;;;4.13;84.15;100710.09;1789665;80;21439;-78
2022/04/21 00:33:20;;;;;;;11.70;9.58;;;;;;;4.15;84.21;100712.20;1789902;80;21221;-80
2022/04/21 00:35:47;;;;;;;7.58;6.75;;;;;;;4.17;84.29;100716.05;1789696;78;20840;-79
2022/04/21 00:38:15;;;;;;;8.18;7.20;;;;;;;4.21;84.32;100721.55;1789824;80;20852;-81
2022/04/21 00:40:41;;;;;;;11.25;6.75;;;;;;;4.24;84.32;100716.25;1789872;80;20919;-80
2022/04/21 00:43:10;;;;;;;10.53;8.30;;;;;;;4.29;84.27;100723.43;1789838;80;21042;-80
2022/04/21 00:45:38;;;;;;;8.55;6.47;;;;;;;4.33;84.19;100723.28;1789729;80;20963;-80
2022/04/21 00:48:05;;;;;;;7.67;6.87;;;;;;;4.38;84.13;100717.97;1789779;80;20864;-79
2022/04/21 00:50:36;;;;;;;9.30;6.92;;;;;;;4.43;84.06;100713.92;1789742;78;20899;-78
2022/04/21 00:53:02;;;;;;;8.75;7.17;;;;;;;4.48;83.93;100710.25;1790057;80;21410;-80
2022/04/21 00:55:29;;;;;;;9.33;6.87;;;;;;;4.52;83.77;100712.31;1789733;80;20871;-79
2022/04/21 00:57:56;;;;;;;8.40;7.20;;;;;;;4.55;83.63;100710.44;1763592;80;21293;-80
2022/04/21 01:00:24;;;;;;;8.53;6.70;;;;;;;4.58;83.48;100704.32;1789557;78;20868;-79
2022/04/21 01:02:52;;;;;;;6.80;6.20;;;;;;;4.60;83.37;100703.79;1789722;80;20915;-79
2022/04/21 01:05:32;;;;;;;13.45;7.95;;;;;;;4.60;83.24;100702.95;1789596;80;20966;-80
2022/04/21 01:08:04;;;;;;;7.83;6.33;;;;;;;4.60;83.18;100701.65;1788847;80;20872;-79
2022/04/21 01:10:41;;;;;;;11.28;7.42;;;;;;;4.60;83.17;100705.09;1789728;80;20872;-80
2022/04/21 01:13:11;;;;;;;8.63;7.70;;;;;;;4.61;83.12;100704.66;1789747;80;20914;-78
2022/04/21 01:15:40;;;;;;;11.48;8.18;;;;;;;4.61;83.19;100704.66;1789804;80;20860;-79
2022/04/21 01:18:09;;;;;;;12.33;9.28;;;;;;;4.63;83.24;100709.36;1789862;78;20852;-80
2022/04/21 01:20:38;;;;;;;18.77;13.18;;;;;;;4.65;83.26;100702.36;1789740;80;20911;-79
2022/04/21 01:23:06;;;;;;;15.03;9.73;;;;;;;4.67;83.35;100699.23;1789599;80;21165;-79
2022/04/21 01:25:39;;;;;;;11.48;9.45;;;;;;;4.70;83.37;100701.75;1789628;80;20962;-80
2022/04/21 01:28:06;;;;;;;16.73;9.97;;;;;;;4.72;83.37;100699.48;1789971;80;21353;-79
2022/04/21 01:30:33;;;;;;;13.60;8.85;;;;;;;4.76;83.41;100701.54;1789646;80;20887;-80
2022/04/21 01:33:00;;;;;;;10.03;8.90;;;;;;;4.82;83.39;100703.06;1789890;80;20903;-80
2022/04/21 01:35:28;;;;;;;11.00;9.55;;;;;;;4.89;83.33;100705.84;1789572;78;21255;-79
2022/04/21 01:43:27;;;;;;;10.82;8.68;;;;;;;5.02;82.99;100710.16;1789720;80;20934;-81
2022/04/21 01:45:54;;;;;;;11.43;9.60;;;;;;;5.06;82.87;100709.16;1789930;80;20876;-82
2022/04/21 01:48:22;;;;;;;12.15;7.87;;;;;;;5.09;82.79;100711.20;1789669;80;21243;-79
2022/04/21 01:50:52;;;;;;;12.63;8.55;;;;;;;5.12;82.67;100707.64;1789728;80;20875;-79
2022/04/21 01:53:17;;;;;;;10.18;7.72;;;;;;;5.12;82.47;100704.58;1789441;80;20891;-79
2022/04/21 01:55:44;;;;;;;8.05;7.25;;;;;;;5.14;82.41;100713.17;1789729;80;20860;-79
2022/04/21 01:58:12;;;;;;;10.35;8.63;;;;;;;5.15;82.30;100708.81;1789759;80;20916;-80
2022/04/21 02:00:43;;;;;;;10.63;7.97;;;;;;;5.14;82.35;100714.47;1789711;80;21910;-80
2022/04/21 02:03:09;;;;;;;8.88;8.00;;;;;;;5.16;82.29;100715.27;1789813;80;20927;-80
2022/04/21 02:05:36;;;;;;;14.35;8.10;;;;;;;5.17;82.26;100711.75;1789758;78;20907;-79
2022/04/21 02:08:04;;;;;;;10.82;9.73;;;;;;;5.18;82.27;100705.66;1789753;80;20959;-79
2022/04/21 02:10:32;;;;;;;7.30;6.65;;;;;;;5.21;82.20;100707.30;1789572;80;20911;-80
2022/04/21 02:12:58;;;;;;;9.88;7.83;;;;;;;5.21;82.16;100709.91;1786841;79;21790;-79
2022/04/21 02:15:27;;;;;;;8.28;7.47;;;;;;;5.22;82.21;100708.14;1786655;80;20887;-80
2022/04/21 02:17:53;;;;;;;11.65;8.38;;;;;;;5.23;82.27;100725.00;1786700;80;20907;-80
2022/04/21 02:20:20;;;;;;;8.83;7.03;;;;;;;5.25;82.29;100716.69;1786592;80;20931;-80
2022/04/21 02:22:47;;;;;;;8.68;6.87;;;;;;;5.28;82.30;100711.83;1786530;79;21416;-80
2022/04/21 02:25:16;;;;;;;10.08;6.08;;;;;;;5.31;82.32;100721.64;1786504;80;21124;-80
2022/04/21 02:27:47;;;;;;;6.95;6.08;;;;;;;5.33;82.25;100711.20;1786784;80;21444;-80
2022/04/21 02:30:15;;;;;;;7.03;6.30;;;;;;;5.32;82.20;100714.25;1786489;80;20946;-80
2022/04/21 02:32:42;;;;;;;6.22;5.62;;;;;;;5.34;82.11;100724.15;1786453;80;20919;-78
2022/04/21 02:35:10;;;;;;;8.58;6.60;;;;;;;5.35;82.07;100722.39;1786584;80;21432;-80
2022/04/21 02:37:46;;;;;;;8.20;5.95;;;;;;;5.36;81.91;100720.20;1786510;79;21290;-80
2022/04/21 02:40:14;;;;;;;8.48;6.35;;;;;;;5.37;81.88;100723.19;1786590;79;21421;-79
2022/04/21 02:42:42;;;;;;;7.72;6.90;;;;;;;5.43;81.92;100722.13;1786626;79;21424;-79
2022/04/21 02:45:12;;;;;;;6.85;6.25;;;;;;;5.48;81.89;100713.69;1786484;80;20915;-79
2022/04/21 02:47:40;;;;;;;7.33;5.92;;;;;;;5.52;81.75;100717.41;1786775;80;20852;-81
2022/04/21 02:50:09;;;;;;;8.00;6.28;;;;;;;5.53;81.47;100715.20;1786552;80;20868;-79
2022/04/21 02:52:37;;;;;;;8.18;6.87;;;;;;;5.54;81.39;100721.27;1786652;79;20864;-80
2022/04/21 02:57:53;;;;;;;7.08;6.37;;;;;;;5.59;81.33;100727.98;1786518;79;20955;-80
2022/04/21 03:00:19;;;;;;;7.92;6.35;;;;;;;5.62;81.19;100728.31;1786505;79;21377;-80
2022/04/21 03:02:46;;;;;;;11.73;9.93;;;;;;;5.64;81.15;100731.70;1786783;80;21895;-81
2022/04/21 03:05:13;;;;;;;10.90;8.13;;;;;;;5.66;81.00;100733.80;1786451;80;20954;-80
2022/04/21 03:07:41;;;;;;;7.65;6.72;;;;;;;5.69;80.97;100735.44;1786575;80;20959;-81
2022/04/21 03:10:09;;;;;;;7.85;7.05;;;;;;;5.72;81.02;100740.08;1786594;80;21373;-80
2022/04/21 03:12:37;;;;;;;12.37;8.90;;;;;;;5.78;80.89;100742.88;1786583;80;21349;-80
2022/04/21 03:15:04;;;;;;;9.20;7.90;;;;;;;5.80;80.75;100738.05;1786791;80;21225;-80
2022/04/21 03:17:31;;;;;;;16.07;11.73;;;;;;;5.81;80.62;100732.37;1786513;79;20977;-80
2022/04/21 03:19:58;;;;;;;17.15;13.25;;;;;;;5.82;80.64;100726.25;1786672;79;20821;-80
2022/04/21 03:26:19;;;;;;;14.13;9.03;;;;;;;5.95;80.48;100726.20;1816434;79;22562;-81
2022/04/21 03:28:47;;;;;;;13.28;9.63;;;;;;;5.94;80.37;100730.16;1789807;80;21361;-79
2022/04/21 03:31:14;;;;;;;16.90;10.78;;;;;;;5.95;80.18;100723.60;1789438;80;21256;-80
2022/04/21 03:33:42;;;;;;;19.55;10.13;;;;;;;5.96;79.95;100725.77;1789540;80;20884;-81
2022/04/21 03:36:09;;;;;;;17.15;11.40;;;;;;;5.96;79.78;100733.13;1789848;80;20923;-79
2022/04/21 03:38:39;;;;;;;22.52;12.70;;;;;;;5.92;79.82;100733.27;1789515;80;21381;-79
2022/04/21 03:41:05;;;;;;;21.20;12.58;;;;;;;5.90;79.91;100732.02;1789586;80;20907;-81
2022/04/21 03:43:35;;;;;;;17.10;12.63;;;;;;;5.94;79.97;100744.47;1789507;80;21890;-80
2022/04/21 03:46:03;;;;;;;14.38;11.55;;;;;;;5.96;80.00;100741.39;1789429;80;20971;-80
2022/04/21 03:48:29;;;;;;;13.50;10.23;;;;;;;5.97;79.99;100747.81;1789568;79;21325;-81
2022/04/21 03:50:57;;;;;;;11.57;10.38;;;;;;;5.97;79.92;100755.63;1789551;80;21357;-80
2022/04/21 03:53:24;;;;;;;17.02;10.63;;;;;;;5.97;79.91;100764.73;1789683;80;21834;-82
2022/04/21 03:55:52;;;;;;;20.57;13.18;;;;;;;5.95;79.85;100758.73;1789567;80;21034;-78
2022/04/21 03:58:20;;;;;;;16.35;11.90;;;;;;;5.95;79.95;100755.30;1789458;80;21318;-79
2022/04/21 04:00:47;;;;;;;16.27;13.10;;;;;;;5.93;79.92;100752.70;1789580;80;20900;-80
2022/04/21 04:03:14;;;;;;;19.70;13.45;;;;;;;5.94;79.99;100752.28;1789549;80;21455;-80
2022/04/21 04:05:41;;;;;;;15.32;12.90;;;;;;;5.95;79.99;100747.03;1789535;80;20864;-80
2022/04/21 04:10:56;;;;;;;21.45;15.08;;;;;;;5.98;80.13;100743.02;1789343;80;20975;-80
2022/04/21 04:13:24;;;;;;;22.37;17.12;;;;;;;6.01;80.20;100749.86;1789413;80;20912;-80
2022/04/21 04:15:54;;;;;;;16.20;13.60;;;;;;;6.03;80.17;100742.00;1789446;80;20994;-81
2022/04/21 04:18:21;;;;;;;17.98;13.13;;;;;;;6.05;80.28;100742.76;1789676;80;20860;-80
2022/04/21 04:20:48;;;;;;;19.20;12.95;;;;;;;6.11;80.40;100736.02;1789574;80;21123;-80
2022/04/21 04:23:18;;;;;;;19.05;12.60;;;;;;;6.18;80.40;100737.46;1789345;80;20935;-81
2022/04/21 04:25:44;;;;;;;15.58;10.45;;;;;;;6.29;80.35;100738.34;1786080;80;20943;-80
2022/04/21 04:28:13;;;;;;;13.35;11.25;;;;;;;6.36;80.02;100733.30;1784206;80;20963;-81
2022/04/21 04:30:39;;;;;;;13.65;9.90;;;;;;;6.37;79.87;100738.88;1784376;80;20884;-80
2022/04/21 04:33:07;;;;;;;13.30;11.40;;;;;;;6.42;79.92;100746.05;1784225;80;21257;-80
2022/04/21 04:35:33;;;;;;;14.03;11.00;;;;;;;6.45;79.87;100747.25;1746809;82;20991;-81
2022/04/21 04:38:00;;;;;;;13.68;10.43;;;;;;;6.49;79.79;100750.55;1746210;82;20904;-80
2022/04/21 04:40:27;;;;;;;12.73;9.68;;;;;;;6.51;79.70;100759.16;1746295;82;20922;-80
2022/04/21 04:42:55;;;;;;;11.95;9.48;;;;;;;6.50;79.68;100758.31;1746197;82;21484;-81
2022/04/21 04:47:54;;;;;;;13.70;12.10;;;;;;;6.52;79.66;100761.70;1752352;80;20979;-81
2022/04/21 04:50:21;;;;;;;13.08;9.63;;;;;;;6.53;79.75;100761.25;1783562;80;20840;-81
2022/04/21 04:52:48;;;;;;;10.95;8.43;;;;;;;6.56;79.75;100763.28;1783601;80;21407;-80
2022/04/21 04:55:14;;;;;;;11.48;9.33;;;;;;;6.61;79.74;100764.39;1783940;80;20940;-80
2022/04/21 04:57:43;;;;;;;11.73;8.50;;;;;;;6.64;79.72;100763.79;1783640;80;20974;-81
2022/04/21 05:00:11;;;;;;;15.68;10.25;;;;;;;6.69;79.62;100762.30;1783507;80;20952;-81
2022/04/21 05:02:37;;;;;;;12.82;9.55;;;;;;;6.70;79.61;100760.56;1783934;80;20935;-80
2022/04/21 05:05:07;;;;;;;10.75;8.15;;;;;;;6.75;79.57;100763.81;1784033;80;20951;-82
2022/04/21 05:07:35;;;;;;;9.90;7.92;;;;;;;6.80;79.51;100761.85;1783599;80;20920;-81
2022/04/21 05:10:03;;;;;;;8.60;6.95;;;;;;;6.80;79.51;100760.55;1783636;80;21228;-80
2022/04/21 05:12:29;;;;;;;10.20;7.83;;;;;;;6.82;79.47;100766.55;1783549;80;20888;-80
2022/04/21 05:14:58;;;;;;;8.18;7.35;;;;;;;6.86;79.48;100770.73;1783494;80;20904;-79
2022/04/21 05:17:26;;;;;;;10.72;8.50;;;;;;;6.92;79.41;100770.48;1783537;80;20947;-80
2022/04/21 05:19:55;;;;;;;11.53;8.40;;;;;;;6.96;79.26;100775.95;1783730;80;20939;-80
2022/04/21 05:22:26;;;;;;;12.95;8.00;;;;;;;7.01;79.18;100764.86;1783742;80;20998;-78
2022/04/21 05:24:53;;;;;;;10.03;7.97;;;;;;;7.09;79.12;100768.89;1782195;80;20972;-81
2022/04/21 05:27:21;;;;;;;11.97;9.25;;;;;;;7.16;78.90;100766.41;1775262;80;20928;-81
2022/04/21 05:32:38;;;;;;;13.48;8.78;;;;;;;7.27;78.73;100770.73;1775320;80;20881;-81
2022/04/21 05:35:05;;;;;;;12.95;9.05;;;;;;;7.37;78.42;100769.39;1775430;80;21127;-79
2022/04/21 05:37:35;;;;;;;11.05;9.73;;;;;;;7.46;78.23;100770.28;1775155;80;20960;-79
2022/04/21 05:40:04;;;;;;;10.93;9.75;;;;;;;7.57;77.83;100774.18;1775339;80;20964;-80
2022/04/21 05:42:34;;;;;;;14.18;9.50;;;;;;;7.64;77.40;100772.52;1775364;80;20948;-80
2022/04/21 05:45:03;;;;;;;10.05;8.58;;;;;;;7.73;77.16;100775.17;1775248;80;21102;-80
2022/04/21 05:47:29;;;;;;;11.38;9.55;;;;;;;7.79;76.90;100776.67;1775168;80;21835;-81
2022/04/21 05:49:57;;;;;;;12.37;9.18;;;;;;;7.84;76.66;100775.52;1775384;80;20904;-80
2022/04/21 05:52:24;;;;;;;13.38;11.30;;;;;;;7.97;76.70;100774.97;1775301;80;20972;-80
2022/04/21 05:54:51;;;;;;;15.05;11.43;;;;;;;8.09;76.45;100776.55;1775496;80;20865;-80
2022/04/21 05:57:18;;;;;;;8.88;8.18;;;;;;;8.17;75.79;100776.17;1775294;80;20896;-81
2022/04/21 05:59:46;;;;;;;11.88;9.30;;;;;;;8.21;74.95;100778.20;1775311;80;21402;-80
2022/04/21 06:02:13;;;;;;;10.43;8.30;;;;;;;8.21;74.90;100777.73;1775154;80;21449;-81
2022/04/21 06:04:40;;;;;;;11.57;9.48;;;;;;;8.27;74.86;100782.67;1775228;80;21011;-81
2022/04/21 06:07:06;;;;;;;13.88;10.03;;;;;;;8.32;74.37;100775.08;1775424;80;20884;-81
2022/04/21 06:09:33;;;;;;;9.20;8.08;;;;;;;8.37;74.47;100780.91;1775374;80;20924;-80
2022/04/21 06:12:03;;;;;;;8.25;7.45;;;;;;;8.43;74.01;100774.12;1775424;80;21374;-80
2022/04/21 06:14:29;;;;;;;9.73;8.83;;;;;;;8.46;73.62;100776.11;1775270;80;20872;-80
2022/04/21 06:16:57;;;;;;;9.98;8.68;;;;;;;8.49;73.63;100779.03;1775584;80;21507;-80
2022/04/21 06:19:25;;;;;;;11.73;9.30;;;;;;;8.54;73.66;100784.90;1775139;80;21449;-80
2022/04/21 06:21:51;;;;;;;8.33;7.50;;;;;;;8.59;73.32;100785.52;1775203;80;20885;-80
2022/04/21 06:24:18;;;;;;;10.40;9.33;;;;;;;8.63;73.16;100786.22;1775551;80;21187;-81
2022/04/21 06:26:44;;;;;;;10.78;9.75;;;;;;;8.66;73.01;100781.67;1781626;80;20931;-80
2022/04/21 06:29:11;;;;;;;12.65;11.50;;;;;;;8.70;72.81;100783.21;1783450;80;20963;-80
2022/04/21 06:31:38;;;;;;;11.25;10.15;;;;;;;8.74;72.67;100795.69;1783539;80;21003;-81
2022/04/21 06:34:05;;;;;;;10.03;9.08;;;;;;;8.74;72.29;100789.15;1784161;80;20979;-81
2022/04/21 06:36:32;;;;;;;11.70;9.38;;;;;;;8.69;72.29;100797.22;1783772;80;21110;-80
2022/04/21 06:39:01;;;;;;;9.30;8.40;;;;;;;8.66;72.44;100787.36;1783549;80;20876;-79
2022/04/21 06:41:28;;;;;;;11.38;10.25;;;;;;;8.65;72.46;100792.22;1783519;80;20892;-80
2022/04/21 06:49:27;;;;;;;14.33;8.85;;;;;;;9.43;70.29;100800.02;1783504;80;20136;-82
2022/04/21 06:51:54;;;;;;;14.65;10.20;;;;;;;9.61;68.81;100794.27;1783405;80;20912;-80
2022/04/21 06:54:20;;;;;;;11.73;9.80;;;;;;;9.67;67.30;100799.19;1783813;80;20849;-82
2022/04/21 06:56:48;;;;;;;10.32;8.70;;;;;;;9.65;66.89;100804.09;1783339;80;20907;-81
2022/04/21 06:59:16;;;;;;;12.68;9.88;;;;;;;9.80;66.92;100806.37;1783581;80;20919;-84
2022/04/21 07:01:46;;;;;;;11.57;10.50;;;;;;;9.88;67.06;100806.34;1783549;80;21915;-81
2022/04/21 07:04:14;;;;;;;13.85;11.53;;;;;;;10.07;66.17;100805.33;1783454;80;20947;-82
2022/04/21 07:06:41;;;;;;;8.73;7.97;;;;;;;10.15;65.39;100801.36;1783460;80;20932;-80
2022/04/21 07:09:08;;;;;;;9.38;8.38;;;;;;;10.22;64.44;100793.16;1783382;80;20908;-81
2022/04/21 07:11:37;;;;;;;10.23;8.43;;;;;;;10.27;63.18;100791.12;1783489;80;20947;-80
2022/04/21 07:14:04;;;;;;;8.93;7.97;;;;;;;10.28;62.82;100798.07;1783546;80;21154;-81
2022/04/21 07:16:32;;;;;;;11.50;8.65;;;;;;;10.26;62.16;100798.63;1783405;80;20891;-81
2022/04/21 07:19:00;;;;;;;14.63;10.55;;;;;;;10.16;62.36;100796.52;1783492;80;20956;-81
2022/04/21 07:21:30;;;;;;;10.93;9.65;;;;;;;10.10;62.81;100794.70;1783532;80;20861;-80
2022/04/21 07:23:56;;;;;;;15.23;11.15;;;;;;;10.02;62.48;100801.66;1783615;80;20979;-80
2022/04/21 07:26:23;;;;;;;10.53;9.10;;;;;;;9.93;63.04;100792.99;1783580;80;21393;-80
2022/04/21 07:28:50;;;;;;;11.03;9.25;;;;;;;9.82;63.38;100790.11;1783321;80;20868;-81
2022/04/21 07:31:17;;;;;;;11.48;9.93;;;;;;;9.76;63.10;100799.16;1783483;80;20971;-81
2022/04/21 07:33:45;;;;;;;13.05;9.60;;;;;;;9.82;63.59;100796.19;1783356;80;20951;-81
2022/04/21 07:36:12;;;;;;;11.73;8.38;;;;;;;9.91;63.32;100790.45;1783546;80;20935;-81
2022/04/21 07:38:38;;;;;;;14.05;9.88;;;;;;;10.00;63.55;100789.10;1783487;80;21120;-80
2022/04/21 07:41:05;;;;;;;9.33;8.20;;;;;;;10.14;63.49;100794.91;1783991;80;20892;-81
2022/04/21 07:43:33;;;;;;;9.35;7.97;;;;;;;10.27;62.64;100788.50;1783513;80;20991;-81
2022/04/21 07:46:00;;;;;;;8.20;7.40;;;;;;;10.34;62.29;100785.97;1783548;80;20872;-81
2022/04/21 07:49:44;;;;;;;6.28;5.70;;;;;;;10.43;61.75;100780.20;1784053;80;20916;-80
2022/04/21 07:50:55;;;;;;;6.30;5.80;;;;;;;10.54;60.38;100785.68;1780703;80;21257;-80
2022/04/21 07:53:22;;;;;;;5.83;5.25;;;;;;;10.70;59.10;100790.05;1728417;80;20979;-82
2022/04/21 07:55:52;;;;;;;7.15;5.58;;;;;;;10.85;57.54;100782.59;1783554;80;20856;-81
2022/04/21 07:58:25;;;;;;;7.87;5.17;;;;;;;11.05;56.96;100781.87;1783525;80;20896;-81
2022/04/21 08:00:49;;;;;;;6.30;5.80;;;;;;;11.27;56.41;100782.30;1782752;80;20868;-82
2022/04/21 08:03:18;;;;;;;5.97;4.78;;;;;;;11.55;56.29;100780.61;1783875;80;21195;-81
2022/04/21 08:05:45;;;;;;;7.37;4.47;;;;;;;11.86;55.13;100777.39;1783582;80;21405;-82
2022/04/21 08:08:12;;;;;;;5.40;4.55;;;;;;;12.15;53.96;100773.78;1783374;80;20876;-80
2022/04/21 08:10:39;;;;;;;5.28;4.78;;;;;;;12.29;53.40;100772.88;1783455;80;20943;-81
2022/04/21 08:13:07;;;;;;;5.83;4.67;;;;;;;12.33;51.66;100774.38;1783756;80;21463;-81
2022/04/21 08:15:34;;;;;;;9.55;6.62;;;;;;;12.31;51.45;100774.11;1783647;80;21300;-81
2022/04/21 08:18:04;;;;;;;6.55;4.53;;;;;;;12.22;51.60;100773.75;1783601;80;21454;-81
2022/04/21 08:20:32;;;;;;;5.22;4.83;;;;;;;12.16;52.02;100774.17;1783303;80;21034;-80
2022/04/21 08:22:59;;;;;;;4.70;4.28;;;;;;;12.11;52.51;100777.54;1783544;80;21334;-81
2022/04/21 08:33:44;;;;;;;8.48;4.22;;;;;;;12.08;52.68;100782.17;1783576;80;21533;-80
2022/04/21 08:36:12;;;;;;;5.12;4.40;;;;;;;12.02;53.27;100778.12;1783808;80;20936;-80
2022/04/21 08:38:40;;;;;;;5.45;4.75;;;;;;;11.95;53.43;100776.36;1783738;80;20919;-78
2022/04/21 08:41:07;;;;;;;6.10;5.58;;;;;;;11.95;53.56;100773.73;1783776;80;21102;-80
2022/04/21 08:43:34;;;;;;;7.20;5.47;;;;;;;11.92;54.00;100783.14;1783538;80;20923;-79
2022/04/21 08:46:01;;;;;;;6.08;5.33;;;;;;;11.85;54.37;100787.06;1783856;80;20853;-80
2022/04/21 08:48:29;;;;;;;5.85;4.58;;;;;;;11.77;54.62;100780.95;1783498;80;20896;-80
2022/04/21 08:50:56;;;;;;;5.22;4.58;;;;;;;11.70;54.23;100772.26;1783624;80;21310;-81
2022/04/21 08:53:26;;;;;;;4.75;4.35;;;;;;;11.64;54.33;100786.60;1783867;80;21067;-81
2022/04/21 08:55:54;;;;;;;6.72;5.72;;;;;;;11.63;54.06;100777.05;1783422;80;20995;-82
2022/04/21 08:58:21;;;;;;;6.58;5.78;;;;;;;11.61;54.39;100782.86;1783909;80;20860;-80
2022/04/21 09:00:53;;;;;;;5.25;4.62;;;;;;;11.59;54.43;100779.48;1783546;80;20900;-79
2022/04/21 09:03:19;;;;;;;7.50;6.67;;;;;;;11.61;54.29;100784.17;1783832;80;21389;-81
2022/04/21 09:05:48;;;;;;;6.03;5.42;;;;;;;11.77;54.01;100773.08;1783493;80;20844;-81
2022/04/21 09:08:24;;;;;;;7.80;5.90;;;;;;;11.95;53.86;100786.88;1783469;80;20947;-81
2022/04/21 09:11:09;;;;;;;8.25;5.37;;;;;;;12.31;53.25;100782.00;1783797;80;20888;-81
2022/04/21 09:13:43;;;;;;;5.90;4.22;;;;;;;12.61;52.11;100772.58;1783535;80;21405;-82
2022/04/21 09:16:12;;;;;;;9.50;5.20;;;;;;;12.85;49.85;100772.27;1783847;80;20923;-81
2022/04/21 09:18:44;;;;;;;7.85;4.90;;;;;;;13.09;49.46;100776.80;1783534;80;20924;-80
2022/04/21 09:21:16;;;;;;;7.95;5.90;;;;;;;13.17;48.85;100773.66;1783505;80;20876;-80
2022/04/21 09:23:45;;;;;;;6.85;5.67;;;;;;;13.13;49.16;100773.50;1783838;80;20951;-80
2022/04/21 09:26:21;;;;;;;10.43;6.03;;;;;;;13.07;49.54;100781.33;1782154;80;21026;-84
2022/04/21 09:28:58;;;;;;;10.08;6.53;;;;;;;12.94;50.19;100774.75;1775373;80;20932;-80
2022/04/21 09:31:27;;;;;;;9.38;6.55;;;;;;;12.76;50.78;100772.89;1775612;80;21167;-81
2022/04/21 09:33:55;;;;;;;7.72;6.40;;;;;;;12.59;51.66;100777.10;1775237;80;20991;-80
2022/04/21 09:36:23;;;;;;;7.80;6.80;;;;;;;12.39;53.09;100779.72;1775235;80;20963;-80
2022/04/21 09:39:00;;;;;;;7.58;6.70;;;;;;;12.19;54.45;100783.16;1775591;80;20869;-81
2022/04/21 09:41:30;;;;;;;8.00;7.00;;;;;;;11.95;55.17;100784.72;1775417;80;21406;-81
2022/04/21 09:46:58;;;;;;;6.65;5.97;;;;;;;11.76;56.17;100780.59;1775292;80;20932;-81
2022/04/21 09:49:44;;;;;;;6.70;6.03;;;;;;;11.77;56.36;100778.81;1775224;80;20928;-81
2022/04/21 09:52:12;;;;;;;8.80;7.00;;;;;;;11.75;55.76;100776.74;1775252;80;20948;-80
2022/04/21 09:54:45;;;;;;;8.10;7.33;;;;;;;11.65;55.94;100777.80;1775427;80;20935;-82
2022/04/21 09:57:10;;;;;;;10.80;6.97;;;;;;;11.52;56.63;100781.64;1775737;80;21344;-80
2022/04/21 09:59:38;;;;;;;8.40;6.50;;;;;;;11.35;57.25;100782.66;1775449;80;21027;-82
2022/04/21 10:02:04;;;;;;;7.85;6.78;;;;;;;11.22;57.93;100785.64;1775327;80;20983;-80
2022/04/21 10:04:31;;;;;;;8.83;7.75;;;;;;;11.14;58.64;100782.66;1775142;80;21374;-81
2022/04/21 10:06:59;;;;;;;8.20;7.50;;;;;;;11.08;59.54;100785.16;1775145;80;20857;-82
2022/04/21 10:09:25;;;;;;;17.07;14.45;;;;;;;11.04;60.24;100783.66;1775440;80;21413;-80
2022/04/21 10:11:55;;;;;;;9.48;8.58;;;;;;;11.03;60.71;100783.73;1775347;80;21038;-82
2022/04/21 10:14:22;;;;;;;9.28;8.23;;;;;;;11.04;61.22;100791.53;1775863;80;21390;-81
2022/04/21 10:16:51;;;;;;;8.18;7.20;;;;;;;11.06;60.59;100791.45;1775730;80;21418;-81
2022/04/21 10:19:19;;;;;;;9.18;7.20;;;;;;;11.06;60.35;100787.51;1775942;80;21417;-81
2022/04/21 10:21:58;;;;;;;8.65;7.67;;;;;;;11.10;60.28;100783.77;1730367;80;20861;-79
2022/04/21 10:24:27;;;;;;;7.87;7.17;;;;;;;11.19;60.50;100788.47;1778750;80;20928;-80
2022/04/21 10:26:56;;;;;;;12.10;8.15;;;;;;;11.29;60.32;100795.31;1780743;80;20877;-79
2022/04/21 10:29:27;;;;;;;7.00;6.35;;;;;;;11.38;60.49;100793.00;1786105;80;21006;-80
2022/04/21 10:32:03;;;;;;;7.75;6.17;;;;;;;11.56;60.44;100794.09;1783694;80;21034;-81
2022/04/21 10:34:41;;;;;;;6.40;5.78;;;;;;;11.72;59.24;100796.17;1783625;80;20868;-80
2022/04/21 10:37:17;;;;;;;6.80;6.08;;;;;;;11.87;58.52;100796.14;1783661;80;20967;-81
2022/04/21 10:40:09;;;;;;;7.70;6.40;;;;;;;11.93;58.15;100799.27;1783643;80;20975;-78
2022/04/21 10:42:55;;;;;;;7.15;6.45;;;;;;;11.95;57.86;100809.69;1783434;80;20983;-80
2022/04/21 10:45:33;;;;;;;6.53;5.92;;;;;;;11.95;57.95;100804.44;1783579;80;20991;-82
2022/04/21 10:48:12;;;;;;;5.25;4.85;;;;;;;11.92;58.14;100805.95;1783927;80;21267;-83
2022/04/21 10:50:43;;;;;;;5.40;4.83;;;;;;;11.81;57.25;100811.84;1784208;80;20892;-81
2022/04/21 10:58:47;;;;;;;6.80;5.60;;;;;;;11.96;57.79;100801.72;1783681;80;20896;-80
2022/04/21 11:01:16;;;;;;;5.55;4.72;;;;;;;12.24;57.62;100793.37;1783424;80;21319;-78
2022/04/21 11:03:46;;;;;;;7.60;5.45;;;;;;;12.57;57.17;100800.03;1783654;80;20936;-80
2022/04/21 11:06:15;;;;;;;10.58;5.47;;;;;;;12.86;55.51;100796.31;1783669;80;21507;-81
2022/04/21 11:08:43;;;;;;;5.87;5.28;;;;;;;13.09;55.24;100798.34;1783589;80;20940;-81
2022/04/21 11:11:13;;;;;;;5.12;4.62;;;;;;;13.26;55.03;100797.56;1783582;80;20924;-81
2022/04/21 11:13:50;;;;;;;5.12;4.72;;;;;;;13.31;52.32;100797.28;1783524;80;21058;-81
2022/04/21 11:16:47;;;;;;;5.87;5.37;;;;;;;13.24;51.97;100792.03;1755073;80;21401;-81
2022/04/21 11:19:34;;;;;;;8.15;4.62;;;;;;;13.14;52.17;100787.88;1783500;80;21018;-82
2022/04/21 11:22:10;;;;;;;5.62;4.85;;;;;;;13.03;52.27;100787.29;1783644;80;21018;-81
2022/04/21 11:25:03;;;;;;;3.85;3.45;;;;;;;12.97;52.22;100784.23;1783712;80;20924;-81
2022/04/21 11:27:32;;;;;;;4.08;3.77;;;;;;;12.97;51.93;100781.12;1783450;80;21231;-79
2022/04/21 11:30:05;;;;;;;4.53;4.08;;;;;;;12.97;51.40;100787.70;1783494;80;20920;-81
2022/04/21 11:32:33;;;;;;;3.10;2.77;;;;;;;12.96;50.77;100785.16;1783463;80;20908;-81
2022/04/21 11:35:12;;;;;;;3.20;2.60;;;;;;;13.02;49.98;100785.59;1783457;80;20900;-81
2022/04/21 11:37:59;;;;;;;3.95;2.90;;;;;;;13.08;48.19;100783.51;1783697;80;21034;-82
2022/04/21 11:40:37;;;;;;;5.05;2.77;;;;;;;13.06;48.87;100784.44;1783547;80;21250;-82
2022/04/21 11:43:16;;;;;;;2.55;2.35;;;;;;;13.05;48.92;100780.61;1783473;80;20979;-80
2022/04/21 11:46:04;;;;;;;2.40;2.20;;;;;;;13.07;47.69;100778.69;1783452;80;21480;-81
2022/04/21 11:48:37;;;;;;;7.22;2.22;;;;;;;13.09;47.66;100781.23;1783709;80;20911;-82
2022/04/21 11:51:04;;;;;;;2.65;2.40;;;;;;;13.15;46.38;100784.29;1783819;80;20927;-80
2022/04/21 11:53:36;;;;;;;3.33;2.17;;;;;;;13.10;45.68;100783.77;1783883;80;21129;-80
2022/04/21 11:56:04;;;;;;;3.75;1.98;;;;;;;12.96;44.72;100778.12;1783695;80;21539;-81
2022/04/21 11:58:36;;;;;;;2.30;2.10;;;;;;;12.79;45.34;100781.88;1783780;80;21074;-80
2022/04/21 12:06:48;;;;;;;2.25;1.75;;;;;;;12.52;45.79;100792.92;1783811;80;21262;-80
2022/04/21 12:09:17;;;;;;;3.35;1.92;;;;;;;12.48;45.94;100787.01;1783650;80;20947;-82
2022/04/21 12:11:51;;;;;;;3.67;2.62;;;;;;;12.43;45.94;100795.20;1783731;80;20881;-81
2022/04/21 12:14:20;;;;;;;3.12;2.45;;;;;;;12.39;46.38;100802.91;1783682;80;21342;-81
2022/04/21 12:16:53;;;;;;;3.95;1.87;;;;;;;12.33;45.32;100790.63;1783670;80;20923;-81
2022/04/21 12:19:37;;;;;;;6.25;2.67;;;;;;;12.20;45.68;100802.41;1783713;80;21183;-82
2022/04/21 12:22:12;;;;;;;3.58;1.65;;;;;;;12.14;46.16;100807.59;1783703;80;20987;-82